РПИ Астана

Руководитель РПИ

Evgeny Vygornitsky*

Инструкторы РПИ
Evgeny Vygornitsky (Supervisor)
Vitaliy Alekseyev (Instructor)
Входит в состав
ЗЦ Центральная Азия

Диспетчеры РПИ

Диспетчер Рейтинг Допуски *

Аэропорты РПИ

ICAO Город Название Погода
UAKK Караганда Караганда UAKK 161830Z 24008MPS 9999 BKN031 M01/M03 Q1011 NOSIG RMK QFE711/0949
UACC Нур-Султан Nur-Sultan UACC 161830Z 23016G21MPS 5000 -SN DRSN OVC021 M05/M09 Q1008 REBLSN RESN NOSIG RMK QFE725/0967
UAKD Жезказган Жезказган UAKD 161430Z 25007MPS 9999 BKN012CB OVC019 M03/M06 Q1011 NOSIG RMK QFE725/0967
UAUU Костанай Наримановка UAUU 161330Z 20008MPS 9999 BKN042 M06/M08 Q0989 NOSIG RMK QFE725/0967